sensor_id;sensor_type;location;lat;lon;timestamp;temperature;humidity
64961;SHT31;51487;52.266;10.542;2022-11-11T00:01:31;9.75;87.55
64961;SHT31;51487;52.266;10.542;2022-11-11T00:03:56;9.72;87.82
64961;SHT31;51487;52.266;10.542;2022-11-11T00:06:22;9.73;87.77
64961;SHT31;51487;52.266;10.542;2022-11-11T00:08:48;9.73;87.76
64961;SHT31;51487;52.266;10.542;2022-11-11T00:11:15;9.66;87.90
64961;SHT31;51487;52.266;10.542;2022-11-11T00:13:43;9.68;87.84
64961;SHT31;51487;52.266;10.542;2022-11-11T00:16:19;9.62;87.93
64961;SHT31;51487;52.266;10.542;2022-11-11T00:18:45;9.63;87.88
64961;SHT31;51487;52.266;10.542;2022-11-11T00:21:31;9.62;87.98
64961;SHT31;51487;52.266;10.542;2022-11-11T00:24:29;9.65;87.92
64961;SHT31;51487;52.266;10.542;2022-11-11T00:27:14;9.68;87.71
64961;SHT31;51487;52.266;10.542;2022-11-11T00:29:45;9.68;87.60
64961;SHT31;51487;52.266;10.542;2022-11-11T00:32:11;9.72;87.45
64961;SHT31;51487;52.266;10.542;2022-11-11T00:34:54;9.63;87.57
64961;SHT31;51487;52.266;10.542;2022-11-11T00:37:40;9.63;87.91
64961;SHT31;51487;52.266;10.542;2022-11-11T00:40:07;9.63;87.82
64961;SHT31;51487;52.266;10.542;2022-11-11T00:42:33;9.58;87.95
64961;SHT31;51487;52.266;10.542;2022-11-11T00:44:59;9.63;87.75
64961;SHT31;51487;52.266;10.542;2022-11-11T00:47:24;9.55;87.72
64961;SHT31;51487;52.266;10.542;2022-11-11T00:50:27;9.59;87.83
64961;SHT31;51487;52.266;10.542;2022-11-11T00:53:16;9.52;87.91
64961;SHT31;51487;52.266;10.542;2022-11-11T00:55:42;9.48;88.13
64961;SHT31;51487;52.266;10.542;2022-11-11T00:58:08;9.46;88.10
64961;SHT31;51487;52.266;10.542;2022-11-11T01:00:34;9.42;88.29
64961;SHT31;51487;52.266;10.542;2022-11-11T01:02:59;9.38;88.33
64961;SHT31;51487;52.266;10.542;2022-11-11T01:05:25;9.39;88.29
64961;SHT31;51487;52.266;10.542;2022-11-11T01:07:51;9.30;88.49
64961;SHT31;51487;52.266;10.542;2022-11-11T01:10:18;9.28;88.74
64961;SHT31;51487;52.266;10.542;2022-11-11T01:13:11;9.23;88.87
64961;SHT31;51487;52.266;10.542;2022-11-11T01:15:43;9.31;88.59
64961;SHT31;51487;52.266;10.542;2022-11-11T01:18:11;9.30;88.90
64961;SHT31;51487;52.266;10.542;2022-11-11T01:20:39;9.20;88.82
64961;SHT31;51487;52.266;10.542;2022-11-11T01:23:08;9.21;88.70
64961;SHT31;51487;52.266;10.542;2022-11-11T01:25:37;9.18;89.20
64961;SHT31;51487;52.266;10.542;2022-11-11T01:28:05;9.15;89.12
64961;SHT31;51487;52.266;10.542;2022-11-11T01:30:32;9.18;88.91
64961;SHT31;51487;52.266;10.542;2022-11-11T01:32:59;9.17;88.96
64961;SHT31;51487;52.266;10.542;2022-11-11T01:35:24;9.13;88.89
64961;SHT31;51487;52.266;10.542;2022-11-11T01:37:50;9.11;89.20
64961;SHT31;51487;52.266;10.542;2022-11-11T01:40:16;9.07;89.35
64961;SHT31;51487;52.266;10.542;2022-11-11T01:45:45;9.04;89.57
64961;SHT31;51487;52.266;10.542;2022-11-11T01:48:26;8.97;89.51
64961;SHT31;51487;52.266;10.542;2022-11-11T01:51:37;8.90;89.67
64961;SHT31;51487;52.266;10.542;2022-11-11T01:54:08;8.88;89.66
64961;SHT31;51487;52.266;10.542;2022-11-11T01:56:37;8.93;89.79
64961;SHT31;51487;52.266;10.542;2022-11-11T01:59:12;8.84;89.91
64961;SHT31;51487;52.266;10.542;2022-11-11T02:01:39;8.90;89.50
64961;SHT31;51487;52.266;10.542;2022-11-11T02:04:07;8.88;89.39
64961;SHT31;51487;52.266;10.542;2022-11-11T02:07:00;8.88;89.32
64961;SHT31;51487;52.266;10.542;2022-11-11T02:09:28;8.90;89.42
64961;SHT31;51487;52.266;10.542;2022-11-11T02:11:57;8.83;89.49
64961;SHT31;51487;52.266;10.542;2022-11-11T02:14:48;8.79;89.83
64961;SHT31;51487;52.266;10.542;2022-11-11T02:17:15;8.80;89.51
64961;SHT31;51487;52.266;10.542;2022-11-11T02:19:51;8.76;89.44
64961;SHT31;51487;52.266;10.542;2022-11-11T02:24:54;8.70;89.89
64961;SHT31;51487;52.266;10.542;2022-11-11T02:27:22;8.72;89.64
64961;SHT31;51487;52.266;10.542;2022-11-11T02:29:53;8.67;89.87
64961;SHT31;51487;52.266;10.542;2022-11-11T02:32:19;8.66;89.91
64961;SHT31;51487;52.266;10.542;2022-11-11T02:34:45;8.59;90.04
64961;SHT31;51487;52.266;10.542;2022-11-11T02:37:11;8.62;90.17
64961;SHT31;51487;52.266;10.542;2022-11-11T02:39:43;8.66;90.02
64961;SHT31;51487;52.266;10.542;2022-11-11T02:42:13;8.67;90.01
64961;SHT31;51487;52.266;10.542;2022-11-11T02:44:40;8.62;90.37
64961;SHT31;51487;52.266;10.542;2022-11-11T02:47:06;8.65;89.88
64961;SHT31;51487;52.266;10.542;2022-11-11T02:49:31;8.65;90.11
64961;SHT31;51487;52.266;10.542;2022-11-11T02:51:57;8.63;89.85
64961;SHT31;51487;52.266;10.542;2022-11-11T02:54:23;8.59;89.71
64961;SHT31;51487;52.266;10.542;2022-11-11T02:56:48;8.65;89.94
64961;SHT31;51487;52.266;10.542;2022-11-11T02:59:39;8.57;89.77
64961;SHT31;51487;52.266;10.542;2022-11-11T03:02:06;8.63;89.77
64961;SHT31;51487;52.266;10.542;2022-11-11T03:04:32;8.66;89.40
64961;SHT31;51487;52.266;10.542;2022-11-11T03:06:58;8.65;89.17
64961;SHT31;51487;52.266;10.542;2022-11-11T03:09:24;8.63;89.51
64961;SHT31;51487;52.266;10.542;2022-11-11T03:11:50;8.59;90.01
64961;SHT31;51487;52.266;10.542;2022-11-11T03:14:16;8.57;89.77
64961;SHT31;51487;52.266;10.542;2022-11-11T03:16:41;8.52;89.73
64961;SHT31;51487;52.266;10.542;2022-11-11T03:19:25;8.48;89.71
64961;SHT31;51487;52.266;10.542;2022-11-11T03:21:50;8.44;89.65
64961;SHT31;51487;52.266;10.542;2022-11-11T03:24:16;8.48;89.57
64961;SHT31;51487;52.266;10.542;2022-11-11T03:26:41;8.53;89.72
64961;SHT31;51487;52.266;10.542;2022-11-11T03:29:07;8.48;89.65
64961;SHT31;51487;52.266;10.542;2022-11-11T03:31:32;8.52;89.38
64961;SHT31;51487;52.266;10.542;2022-11-11T03:33:58;8.49;89.32
64961;SHT31;51487;52.266;10.542;2022-11-11T03:36:45;8.48;89.25
64961;SHT31;51487;52.266;10.542;2022-11-11T03:39:30;8.45;89.31
64961;SHT31;51487;52.266;10.542;2022-11-11T03:41:56;8.44;89.35
64961;SHT31;51487;52.266;10.542;2022-11-11T03:44:22;8.52;89.10
64961;SHT31;51487;52.266;10.542;2022-11-11T03:46:48;8.57;88.74
64961;SHT31;51487;52.266;10.542;2022-11-11T03:49:13;8.65;88.31
64961;SHT31;51487;52.266;10.542;2022-11-11T03:51:39;8.69;88.10
64961;SHT31;51487;52.266;10.542;2022-11-11T03:54:04;8.73;87.94
64961;SHT31;51487;52.266;10.542;2022-11-11T03:56:30;8.80;87.48
64961;SHT31;51487;52.266;10.542;2022-11-11T03:58:55;8.84;87.40
64961;SHT31;51487;52.266;10.542;2022-11-11T04:01:21;8.94;87.03
64961;SHT31;51487;52.266;10.542;2022-11-11T04:04:07;8.99;86.89
64961;SHT31;51487;52.266;10.542;2022-11-11T04:06:51;9.06;86.63
64961;SHT31;51487;52.266;10.542;2022-11-11T04:09:35;9.11;86.19
64961;SHT31;51487;52.266;10.542;2022-11-11T04:12:20;9.18;85.90
64961;SHT31;51487;52.266;10.542;2022-11-11T04:14:46;9.21;85.62
64961;SHT31;51487;52.266;10.542;2022-11-11T04:17:30;9.24;85.57
64961;SHT31;51487;52.266;10.542;2022-11-11T04:19:56;9.27;85.05
64961;SHT31;51487;52.266;10.542;2022-11-11T04:22:43;9.28;85.08
64961;SHT31;51487;52.266;10.542;2022-11-11T04:25:09;9.32;84.77
64961;SHT31;51487;52.266;10.542;2022-11-11T04:27:57;9.39;84.53
64961;SHT31;51487;52.266;10.542;2022-11-11T04:30:42;9.42;84.44
64961;SHT31;51487;52.266;10.542;2022-11-11T04:33:10;9.39;84.37
64961;SHT31;51487;52.266;10.542;2022-11-11T04:35:37;9.36;84.40
64961;SHT31;51487;52.266;10.542;2022-11-11T04:38:04;9.31;84.89
64961;SHT31;51487;52.266;10.542;2022-11-11T04:40:52;9.32;84.74
64961;SHT31;51487;52.266;10.542;2022-11-11T04:43:32;9.36;84.35
64961;SHT31;51487;52.266;10.542;2022-11-11T04:46:18;9.34;84.41
64961;SHT31;51487;52.266;10.542;2022-11-11T04:48:44;9.35;84.34
64961;SHT31;51487;52.266;10.542;2022-11-11T04:51:09;9.35;84.57
64961;SHT31;51487;52.266;10.542;2022-11-11T04:53:35;9.39;84.21
64961;SHT31;51487;52.266;10.542;2022-11-11T04:56:01;9.42;84.11
64961;SHT31;51487;52.266;10.542;2022-11-11T04:58:46;9.39;84.28
64961;SHT31;51487;52.266;10.542;2022-11-11T05:01:11;9.36;84.24
64961;SHT31;51487;52.266;10.542;2022-11-11T05:03:57;9.39;84.39
64961;SHT31;51487;52.266;10.542;2022-11-11T05:06:22;9.32;84.71
64961;SHT31;51487;52.266;10.542;2022-11-11T05:09:06;9.24;84.94
64961;SHT31;51487;52.266;10.542;2022-11-11T05:11:34;9.28;84.91
64961;SHT31;51487;52.266;10.542;2022-11-11T05:14:05;9.24;84.94
64961;SHT31;51487;52.266;10.542;2022-11-11T05:16:56;9.27;85.58
64961;SHT31;51487;52.266;10.542;2022-11-11T05:19:41;9.24;84.93
64961;SHT31;51487;52.266;10.542;2022-11-11T05:22:32;9.25;84.93
64961;SHT31;51487;52.266;10.542;2022-11-11T05:24:58;9.31;84.68
64961;SHT31;51487;52.266;10.542;2022-11-11T05:27:42;9.46;84.26
64961;SHT31;51487;52.266;10.542;2022-11-11T05:30:12;9.41;84.23
64961;SHT31;51487;52.266;10.542;2022-11-11T05:32:38;9.38;84.43
64961;SHT31;51487;52.266;10.542;2022-11-11T05:35:05;9.31;84.77
64961;SHT31;51487;52.266;10.542;2022-11-11T05:37:31;9.35;84.55
64961;SHT31;51487;52.266;10.542;2022-11-11T05:39:56;9.45;83.99
64961;SHT31;51487;52.266;10.542;2022-11-11T05:42:22;9.44;84.21
64961;SHT31;51487;52.266;10.542;2022-11-11T05:44:48;9.36;84.41
64961;SHT31;51487;52.266;10.542;2022-11-11T05:47:13;9.49;84.01
64961;SHT31;51487;52.266;10.542;2022-11-11T05:49:39;9.45;84.09
64961;SHT31;51487;52.266;10.542;2022-11-11T05:52:06;9.45;84.19
64961;SHT31;51487;52.266;10.542;2022-11-11T05:54:32;9.48;84.14
64961;SHT31;51487;52.266;10.542;2022-11-11T05:56:58;9.54;83.81
64961;SHT31;51487;52.266;10.542;2022-11-11T05:59:25;9.49;83.72
64961;SHT31;51487;52.266;10.542;2022-11-11T06:01:50;9.51;83.71
64961;SHT31;51487;52.266;10.542;2022-11-11T06:04:17;9.52;83.66
64961;SHT31;51487;52.266;10.542;2022-11-11T06:06:42;9.55;83.42
64961;SHT31;51487;52.266;10.542;2022-11-11T06:09:08;9.52;83.81
64961;SHT31;51487;52.266;10.542;2022-11-11T06:11:33;9.51;83.92
64961;SHT31;51487;52.266;10.542;2022-11-11T06:13:59;9.42;83.96
64961;SHT31;51487;52.266;10.542;2022-11-11T06:16:25;9.39;84.12
64961;SHT31;51487;52.266;10.542;2022-11-11T06:18:51;9.48;83.70
64961;SHT31;51487;52.266;10.542;2022-11-11T06:21:17;9.45;83.90
64961;SHT31;51487;52.266;10.542;2022-11-11T06:23:43;9.36;84.17
64961;SHT31;51487;52.266;10.542;2022-11-11T06:26:13;9.34;84.35
64961;SHT31;51487;52.266;10.542;2022-11-11T06:28:40;9.35;84.47
64961;SHT31;51487;52.266;10.542;2022-11-11T06:31:08;9.45;84.54
64961;SHT31;51487;52.266;10.542;2022-11-11T06:33:34;9.39;84.16
64961;SHT31;51487;52.266;10.542;2022-11-11T06:36:01;9.38;84.29
64961;SHT31;51487;52.266;10.542;2022-11-11T06:38:26;9.46;84.15
64961;SHT31;51487;52.266;10.542;2022-11-11T06:40:52;9.41;84.24
64961;SHT31;51487;52.266;10.542;2022-11-11T06:43:18;9.42;84.20
64961;SHT31;51487;52.266;10.542;2022-11-11T06:45:44;9.36;84.52
64961;SHT31;51487;52.266;10.542;2022-11-11T06:48:10;9.28;84.52
64961;SHT31;51487;52.266;10.542;2022-11-11T06:50:36;9.24;84.70
64961;SHT31;51487;52.266;10.542;2022-11-11T06:53:16;9.20;85.11
64961;SHT31;51487;52.266;10.542;2022-11-11T06:55:42;9.17;85.17
64961;SHT31;51487;52.266;10.542;2022-11-11T06:58:17;9.18;85.33
64961;SHT31;51487;52.266;10.542;2022-11-11T07:00:46;9.15;85.22
64961;SHT31;51487;52.266;10.542;2022-11-11T07:03:18;9.13;85.24
64961;SHT31;51487;52.266;10.542;2022-11-11T07:05:44;9.18;85.16
64961;SHT31;51487;52.266;10.542;2022-11-11T07:08:14;9.17;85.27
64961;SHT31;51487;52.266;10.542;2022-11-11T07:10:45;9.20;85.03
64961;SHT31;51487;52.266;10.542;2022-11-11T07:13:12;9.17;85.18
64961;SHT31;51487;52.266;10.542;2022-11-11T07:15:38;9.11;85.13
64961;SHT31;51487;52.266;10.542;2022-11-11T07:18:04;9.17;85.27
64961;SHT31;51487;52.266;10.542;2022-11-11T07:20:30;9.11;85.24
64961;SHT31;51487;52.266;10.542;2022-11-11T07:22:55;9.08;85.44
64961;SHT31;51487;52.266;10.542;2022-11-11T07:25:22;9.14;85.51
64961;SHT31;51487;52.266;10.542;2022-11-11T07:27:47;9.17;85.54
64961;SHT31;51487;52.266;10.542;2022-11-11T07:30:13;9.20;85.16
64961;SHT31;51487;52.266;10.542;2022-11-11T07:32:47;9.15;85.15
64961;SHT31;51487;52.266;10.542;2022-11-11T07:35:14;9.23;84.94
64961;SHT31;51487;52.266;10.542;2022-11-11T07:37:40;9.20;85.07
64961;SHT31;51487;52.266;10.542;2022-11-11T07:40:08;9.21;85.16
64961;SHT31;51487;52.266;10.542;2022-11-11T07:42:42;9.31;84.91
64961;SHT31;51487;52.266;10.542;2022-11-11T07:45:09;9.31;84.68
64961;SHT31;51487;52.266;10.542;2022-11-11T07:47:35;9.41;84.31
64961;SHT31;51487;52.266;10.542;2022-11-11T07:50:04;9.52;84.12
64961;SHT31;51487;52.266;10.542;2022-11-11T07:52:29;9.65;83.45
64961;SHT31;51487;52.266;10.542;2022-11-11T07:54:55;9.68;83.07
64961;SHT31;51487;52.266;10.542;2022-11-11T07:57:21;9.75;82.89
64961;SHT31;51487;52.266;10.542;2022-11-11T07:59:46;9.85;83.23
64961;SHT31;51487;52.266;10.542;2022-11-11T08:02:13;9.93;82.28
64961;SHT31;51487;52.266;10.542;2022-11-11T08:04:39;10.03;82.47
64961;SHT31;51487;52.266;10.542;2022-11-11T08:07:05;10.13;81.46
64961;SHT31;51487;52.266;10.542;2022-11-11T08:09:30;10.23;81.60
64961;SHT31;51487;52.266;10.542;2022-11-11T08:11:56;10.32;80.82
64961;SHT31;51487;52.266;10.542;2022-11-11T08:14:40;10.41;80.70
64961;SHT31;51487;52.266;10.542;2022-11-11T08:17:06;10.53;80.31
64961;SHT31;51487;52.266;10.542;2022-11-11T08:19:31;10.54;80.38
64961;SHT31;51487;52.266;10.542;2022-11-11T08:21:57;10.48;80.33
64961;SHT31;51487;52.266;10.542;2022-11-11T08:24:22;10.60;80.38
64961;SHT31;51487;52.266;10.542;2022-11-11T08:26:48;10.69;80.39
64961;SHT31;51487;52.266;10.542;2022-11-11T08:29:14;10.75;79.69
64961;SHT31;51487;52.266;10.542;2022-11-11T08:31:40;10.75;79.58
64961;SHT31;51487;52.266;10.542;2022-11-11T08:34:06;10.76;79.46
64961;SHT31;51487;52.266;10.542;2022-11-11T08:36:32;10.83;79.30
64961;SHT31;51487;52.266;10.542;2022-11-11T08:38:57;10.86;79.50
64961;SHT31;51487;52.266;10.542;2022-11-11T08:41:23;10.93;79.21
64961;SHT31;51487;52.266;10.542;2022-11-11T08:43:53;11.01;79.40
64961;SHT31;51487;52.266;10.542;2022-11-11T08:46:21;11.01;79.13
64961;SHT31;51487;52.266;10.542;2022-11-11T08:48:47;11.12;79.10
64961;SHT31;51487;52.266;10.542;2022-11-11T08:51:13;11.18;79.07
64961;SHT31;51487;52.266;10.542;2022-11-11T08:53:40;11.23;78.16
64961;SHT31;51487;52.266;10.542;2022-11-11T08:56:06;11.24;78.18
64961;SHT31;51487;52.266;10.542;2022-11-11T08:58:32;11.44;77.69
64961;SHT31;51487;52.266;10.542;2022-11-11T09:00:57;11.34;78.21
64961;SHT31;51487;52.266;10.542;2022-11-11T09:03:23;11.44;77.98
64961;SHT31;51487;52.266;10.542;2022-11-11T09:05:49;11.54;78.14
64961;SHT31;51487;52.266;10.542;2022-11-11T09:08:15;11.66;77.36
64961;SHT31;51487;52.266;10.542;2022-11-11T09:10:40;11.67;77.51
64961;SHT31;51487;52.266;10.542;2022-11-11T09:13:06;11.74;76.92
64961;SHT31;51487;52.266;10.542;2022-11-11T09:15:33;11.78;76.88
64961;SHT31;51487;52.266;10.542;2022-11-11T09:17:59;11.82;76.23
64961;SHT31;51487;52.266;10.542;2022-11-11T09:20:26;11.77;76.55
64961;SHT31;51487;52.266;10.542;2022-11-11T09:22:52;11.90;76.91
64961;SHT31;51487;52.266;10.542;2022-11-11T09:25:19;11.85;76.39
64961;SHT31;51487;52.266;10.542;2022-11-11T09:27:56;11.98;76.76
64961;SHT31;51487;52.266;10.542;2022-11-11T09:30:23;11.97;76.66
64961;SHT31;51487;52.266;10.542;2022-11-11T09:32:49;12.11;76.49
64961;SHT31;51487;52.266;10.542;2022-11-11T09:35:14;12.14;76.64
64961;SHT31;51487;52.266;10.542;2022-11-11T09:37:41;12.18;75.84
64961;SHT31;51487;52.266;10.542;2022-11-11T09:40:19;12.18;74.85
64961;SHT31;51487;52.266;10.542;2022-11-11T09:43:04;12.38;74.38
64961;SHT31;51487;52.266;10.542;2022-11-11T09:55:03;12.49;74.05
64961;SHT31;51487;52.266;10.542;2022-11-11T09:57:43;12.45;74.38
64961;SHT31;51487;52.266;10.542;2022-11-11T10:00:24;12.50;73.76
64961;SHT31;51487;52.266;10.542;2022-11-11T10:02:54;12.52;73.63
64961;SHT31;51487;52.266;10.542;2022-11-11T10:05:50;12.59;73.30
64961;SHT31;51487;52.266;10.542;2022-11-11T10:08:39;12.56;73.47
64961;SHT31;51487;52.266;10.542;2022-11-11T10:11:19;12.70;72.63
64961;SHT31;51487;52.266;10.542;2022-11-11T10:13:46;12.57;73.28
64961;SHT31;51487;52.266;10.542;2022-11-11T10:21:26;12.64;73.03
64961;SHT31;51487;52.266;10.542;2022-11-11T10:24:00;12.55;73.27
64961;SHT31;51487;52.266;10.542;2022-11-11T10:26:40;12.53;73.56
64961;SHT31;51487;52.266;10.542;2022-11-11T10:29:41;12.60;73.68
64961;SHT31;51487;52.266;10.542;2022-11-11T10:34:48;12.57;73.27
64961;SHT31;51487;52.266;10.542;2022-11-11T10:37:37;12.67;72.74
64961;SHT31;51487;52.266;10.542;2022-11-11T10:40:20;12.77;73.24
64961;SHT31;51487;52.266;10.542;2022-11-11T10:42:47;12.77;72.68
64961;SHT31;51487;52.266;10.542;2022-11-11T10:47:57;12.84;72.52
64961;SHT31;51487;52.266;10.542;2022-11-11T10:55:42;13.08;72.30
64961;SHT31;51487;52.266;10.542;2022-11-11T10:58:51;13.10;72.42
64961;SHT31;51487;52.266;10.542;2022-11-11T11:01:29;13.21;71.72
64961;SHT31;51487;52.266;10.542;2022-11-11T11:04:09;13.19;71.77
64961;SHT31;51487;52.266;10.542;2022-11-11T11:06:41;13.17;71.63
64961;SHT31;51487;52.266;10.542;2022-11-11T11:09:34;13.17;71.58
64961;SHT31;51487;52.266;10.542;2022-11-11T11:12:08;13.10;71.22
64961;SHT31;51487;52.266;10.542;2022-11-11T11:14:41;13.11;71.58
64961;SHT31;51487;52.266;10.542;2022-11-11T11:17:21;13.15;71.69
64961;SHT31;51487;52.266;10.542;2022-11-11T11:20:17;13.19;71.71
64961;SHT31;51487;52.266;10.542;2022-11-11T11:22:54;13.18;71.42
64961;SHT31;51487;52.266;10.542;2022-11-11T11:25:24;13.31;71.77
64961;SHT31;51487;52.266;10.542;2022-11-11T11:27:52;13.28;71.40
64961;SHT31;51487;52.266;10.542;2022-11-11T11:30:24;13.27;71.17
64961;SHT31;51487;52.266;10.542;2022-11-11T11:32:59;13.24;71.07
64961;SHT31;51487;52.266;10.542;2022-11-11T11:35:41;13.29;71.29
64961;SHT31;51487;52.266;10.542;2022-11-11T11:38:10;13.28;71.52
64961;SHT31;51487;52.266;10.542;2022-11-11T11:40:54;13.29;70.99
64961;SHT31;51487;52.266;10.542;2022-11-11T11:43:38;13.37;71.13
64961;SHT31;51487;52.266;10.542;2022-11-11T11:46:19;13.49;70.95
64961;SHT31;51487;52.266;10.542;2022-11-11T12:00:30;13.69;70.19
64961;SHT31;51487;52.266;10.542;2022-11-11T12:10:11;13.83;69.08
64961;SHT31;51487;52.266;10.542;2022-11-11T12:12:53;13.76;69.32
64961;SHT31;51487;52.266;10.542;2022-11-11T12:15:33;13.77;68.85
64961;SHT31;51487;52.266;10.542;2022-11-11T12:21:07;13.72;69.18
64961;SHT31;51487;52.266;10.542;2022-11-11T12:26:57;13.77;69.15
64961;SHT31;51487;52.266;10.542;2022-11-11T12:32:59;13.77;68.28
64961;SHT31;51487;52.266;10.542;2022-11-11T12:35:32;13.86;68.19
64961;SHT31;51487;52.266;10.542;2022-11-11T12:44:09;14.02;67.85
64961;SHT31;51487;52.266;10.542;2022-11-11T12:47:24;13.97;67.61
64961;SHT31;51487;52.266;10.542;2022-11-11T12:56:47;14.00;66.65
64961;SHT31;51487;52.266;10.542;2022-11-11T12:59:29;14.06;66.50
64961;SHT31;51487;52.266;10.542;2022-11-11T13:02:30;14.13;66.51
64961;SHT31;51487;52.266;10.542;2022-11-11T13:05:13;14.05;67.04
64961;SHT31;51487;52.266;10.542;2022-11-11T13:10:51;14.05;67.17
64961;SHT31;51487;52.266;10.542;2022-11-11T13:15:55;14.07;66.79
64961;SHT31;51487;52.266;10.542;2022-11-11T13:21:21;14.14;66.34
64961;SHT31;51487;52.266;10.542;2022-11-11T13:23:48;14.03;66.88
64961;SHT31;51487;52.266;10.542;2022-11-11T13:26:37;14.05;67.37
64961;SHT31;51487;52.266;10.542;2022-11-11T13:32:23;14.07;67.04
64961;SHT31;51487;52.266;10.542;2022-11-11T13:34:50;14.06;66.90
64961;SHT31;51487;52.266;10.542;2022-11-11T13:37:25;14.02;66.68
64961;SHT31;51487;52.266;10.542;2022-11-11T13:40:05;14.05;66.66
64961;SHT31;51487;52.266;10.542;2022-11-11T13:42:45;14.07;66.71
64961;SHT31;51487;52.266;10.542;2022-11-11T13:45:31;14.03;66.83
64961;SHT31;51487;52.266;10.542;2022-11-11T13:47:58;14.03;66.89
64961;SHT31;51487;52.266;10.542;2022-11-11T13:50:32;14.00;67.29
64961;SHT31;51487;52.266;10.542;2022-11-11T13:53:03;14.06;67.34
64961;SHT31;51487;52.266;10.542;2022-11-11T13:55:38;14.05;67.38
64961;SHT31;51487;52.266;10.542;2022-11-11T13:58:19;14.00;67.30
64961;SHT31;51487;52.266;10.542;2022-11-11T14:00:46;14.02;67.37
64961;SHT31;51487;52.266;10.542;2022-11-11T14:05:45;14.10;67.45
64961;SHT31;51487;52.266;10.542;2022-11-11T14:08:50;14.02;67.71
64961;SHT31;51487;52.266;10.542;2022-11-11T14:17:03;13.96;67.73
64961;SHT31;51487;52.266;10.542;2022-11-11T14:19:30;13.97;67.77
64961;SHT31;51487;52.266;10.542;2022-11-11T14:21:59;13.95;67.79
64961;SHT31;51487;52.266;10.542;2022-11-11T14:24:42;13.93;68.20
64961;SHT31;51487;52.266;10.542;2022-11-11T14:29:46;13.89;68.03
64961;SHT31;51487;52.266;10.542;2022-11-11T14:32:44;13.89;68.22
64961;SHT31;51487;52.266;10.542;2022-11-11T14:35:57;13.89;68.47
64961;SHT31;51487;52.266;10.542;2022-11-11T14:39:41;13.83;68.67
64961;SHT31;51487;52.266;10.542;2022-11-11T14:41:53;13.87;68.28
64961;SHT31;51487;52.266;10.542;2022-11-11T14:52:40;13.59;69.66
64961;SHT31;51487;52.266;10.542;2022-11-11T14:55:20;13.55;69.76
64961;SHT31;51487;52.266;10.542;2022-11-11T15:00:26;13.41;70.38
64961;SHT31;51487;52.266;10.542;2022-11-11T15:03:07;13.38;70.41
64961;SHT31;51487;52.266;10.542;2022-11-11T15:08:28;13.41;70.14
64961;SHT31;51487;52.266;10.542;2022-11-11T15:11:42;13.38;70.26
64961;SHT31;51487;52.266;10.542;2022-11-11T15:17:27;13.18;70.61
64961;SHT31;51487;52.266;10.542;2022-11-11T15:23:41;13.10;71.13
64961;SHT31;51487;52.266;10.542;2022-11-11T15:32:39;12.83;72.07
64961;SHT31;51487;52.266;10.542;2022-11-11T15:35:45;12.77;72.14
64961;SHT31;51487;52.266;10.542;2022-11-11T15:38:16;12.63;72.76
64961;SHT31;51487;52.266;10.542;2022-11-11T15:40:58;12.63;73.14
64961;SHT31;51487;52.266;10.542;2022-11-11T15:43:32;12.55;73.45
64961;SHT31;51487;52.266;10.542;2022-11-11T15:46:02;12.39;74.04
64961;SHT31;51487;52.266;10.542;2022-11-11T15:48:40;12.35;73.93
64961;SHT31;51487;52.266;10.542;2022-11-11T15:53:51;12.29;73.95
64961;SHT31;51487;52.266;10.542;2022-11-11T15:56:31;12.18;74.25
64961;SHT31;51487;52.266;10.542;2022-11-11T15:58:57;12.11;74.51
64961;SHT31;51487;52.266;10.542;2022-11-11T16:01:41;12.08;75.15
64961;SHT31;51487;52.266;10.542;2022-11-11T16:04:10;12.02;75.19
64961;SHT31;51487;52.266;10.542;2022-11-11T16:06:39;11.98;75.21
64961;SHT31;51487;52.266;10.542;2022-11-11T16:09:07;11.88;75.78
64961;SHT31;51487;52.266;10.542;2022-11-11T16:11:38;11.85;75.43
64961;SHT31;51487;52.266;10.542;2022-11-11T16:14:05;11.77;75.53
64961;SHT31;51487;52.266;10.542;2022-11-11T16:16:37;11.81;75.43
64961;SHT31;51487;52.266;10.542;2022-11-11T16:19:18;11.78;75.39
64961;SHT31;51487;52.266;10.542;2022-11-11T16:24:38;11.77;75.80
64961;SHT31;51487;52.266;10.542;2022-11-11T16:27:07;11.69;75.77
64961;SHT31;51487;52.266;10.542;2022-11-11T16:29:38;11.64;75.87
64961;SHT31;51487;52.266;10.542;2022-11-11T16:32:39;11.61;75.76
64961;SHT31;51487;52.266;10.542;2022-11-11T16:35:36;11.63;75.91
64961;SHT31;51487;52.266;10.542;2022-11-11T16:38:03;11.59;75.80
64961;SHT31;51487;52.266;10.542;2022-11-11T16:46:11;11.57;75.74
64961;SHT31;51487;52.266;10.542;2022-11-11T16:48:44;11.56;76.03
64961;SHT31;51487;52.266;10.542;2022-11-11T16:51:40;11.51;75.76
64961;SHT31;51487;52.266;10.542;2022-11-11T16:54:11;11.50;75.71
64961;SHT31;51487;52.266;10.542;2022-11-11T16:56:44;11.46;75.98
64961;SHT31;51487;52.266;10.542;2022-11-11T16:59:20;11.41;75.97
64961;SHT31;51487;52.266;10.542;2022-11-11T17:01:47;11.39;76.07
64961;SHT31;51487;52.266;10.542;2022-11-11T17:04:13;11.34;76.04
64961;SHT31;51487;52.266;10.542;2022-11-11T17:06:52;11.36;76.32
64961;SHT31;51487;52.266;10.542;2022-11-11T17:12:00;11.26;76.43
64961;SHT31;51487;52.266;10.542;2022-11-11T17:14:28;11.24;76.31
64961;SHT31;51487;52.266;10.542;2022-11-11T17:16:54;11.15;76.47
64961;SHT31;51487;52.266;10.542;2022-11-11T17:19:20;11.19;76.12
64961;SHT31;51487;52.266;10.542;2022-11-11T17:21:47;11.20;76.18
64961;SHT31;51487;52.266;10.542;2022-11-11T17:24:13;11.16;76.26
64961;SHT31;51487;52.266;10.542;2022-11-11T17:26:39;11.09;76.34
64961;SHT31;51487;52.266;10.542;2022-11-11T17:29:06;11.12;76.37
64961;SHT31;51487;52.266;10.542;2022-11-11T17:31:35;11.13;76.27
64961;SHT31;51487;52.266;10.542;2022-11-11T17:34:06;11.11;76.03
64961;SHT31;51487;52.266;10.542;2022-11-11T17:36:32;11.09;75.87
64961;SHT31;51487;52.266;10.542;2022-11-11T17:38:57;11.09;75.89
64961;SHT31;51487;52.266;10.542;2022-11-11T17:41:23;11.02;75.99
64961;SHT31;51487;52.266;10.542;2022-11-11T17:43:48;11.02;76.02
64961;SHT31;51487;52.266;10.542;2022-11-11T17:46:14;10.95;76.07
64961;SHT31;51487;52.266;10.542;2022-11-11T17:48:39;12.11;95.68
64961;SHT31;51487;52.266;10.542;2022-11-11T17:51:05;13.42;90.60
64961;SHT31;51487;52.266;10.542;2022-11-11T17:53:34;12.79;83.92
64961;SHT31;51487;52.266;10.542;2022-11-11T17:56:04;12.29;79.72
64961;SHT31;51487;52.266;10.542;2022-11-11T17:58:34;11.90;77.43
64961;SHT31;51487;52.266;10.542;2022-11-11T18:01:08;11.70;75.85
64961;SHT31;51487;52.266;10.542;2022-11-11T18:03:35;11.44;74.92
64961;SHT31;51487;52.266;10.542;2022-11-11T18:06:01;11.23;75.27
64961;SHT31;51487;52.266;10.542;2022-11-11T18:08:29;11.16;75.31
64961;SHT31;51487;52.266;10.542;2022-11-11T18:11:06;11.12;75.17